Pagrindinis puslapis
METAR-TAF:

METAR-TAF

Oro uostai :

Comiso, Italija

platuma: 36-59-30N, ilguma: 14-36-25E, Aukštis: 190 m

Dabartinis oras

Ataskaita buvo paskelbta 37 minutes, ne 10:50 UTC
Vėjas 4 kt iš Pietų/Pietryčių, svyruoja nuo Rytų ir Vakarų
Temperatūra 27°C
Drėgmė 54%
Slėgis 1022 hPa
Matomumas 10 km arba daugiau
Išsisklaidę debesys ne aukštis 3500 ft

METAR: LICB 211050Z 16004KT 090V260 9999 SCT035 27/17 Q1022

Laikas: 13:27 (11:27 UTC)

Prognozė

Ataskaita buvo paskelbta 3 valandos ir 27 minutes, ne 08:00 UTC
Prognozė galioja nuo 21 metu 09 UTC su 21 metu 18 UTC
Vėjas 12 kt iš Vakarų/Pietvakarių
Matomumas 10 km arba daugiau
Mažai debesys ne aukštis 3000 ft

TAF: LICB 210800Z 2109/2118 24012KT 9999 FEW030

Orai ataskaitas ir orų prognozės (METAR, TAF).

turimą stotys yra geltonos ir raudonos taškus žemėlapyje.

Perkelti pele per norėdami pamatyti stoties vardą.

Tada spustelėkite, norėdami matyti oro stebėjimo ir prognozės.

Norėdami pakeisti žemėlapį: spustelėkite ant žalios mygtukų su juodo kryžiaus žemyn,; žalią mygtuką su brūkšneliu, jei norite nutolinti; arba žalių rodyklių gretimoms žemėlapius.


METAR-TAF: